sensor_id;sensor_type;location;lat;lon;timestamp;temperature;humidity
52181;DHT22;38158;53.338;6.514;2022-12-13T00:01:50;-2.50;99.90
52181;DHT22;38158;53.338;6.514;2022-12-13T00:04:17;-2.50;99.90
52181;DHT22;38158;53.338;6.514;2022-12-13T00:06:43;-2.50;99.90
52181;DHT22;38158;53.338;6.514;2022-12-13T00:09:12;-1.60;99.90
52181;DHT22;38158;53.338;6.514;2022-12-13T00:11:38;-2.60;99.90
52181;DHT22;38158;53.338;6.514;2022-12-13T00:14:04;-2.60;99.90
52181;DHT22;38158;53.338;6.514;2022-12-13T00:16:30;-0.70;99.90
52181;DHT22;38158;53.338;6.514;2022-12-13T00:18:57;-1.50;99.90
52181;DHT22;38158;53.338;6.514;2022-12-13T00:21:26;-2.70;99.90
52181;DHT22;38158;53.338;6.514;2022-12-13T00:23:52;-2.70;99.90
52181;DHT22;38158;53.338;6.514;2022-12-13T00:26:20;-1.60;99.90
52181;DHT22;38158;53.338;6.514;2022-12-13T00:28:46;-2.70;99.90
52181;DHT22;38158;53.338;6.514;2022-12-13T00:31:14;-2.80;99.90
52181;DHT22;38158;53.338;6.514;2022-12-13T00:33:40;-2.80;99.90
52181;DHT22;38158;53.338;6.514;2022-12-13T00:36:07;-2.80;99.90
52181;DHT22;38158;53.338;6.514;2022-12-13T00:38:33;-2.80;99.90
52181;DHT22;38158;53.338;6.514;2022-12-13T00:41:08;-2.80;99.90
52181;DHT22;38158;53.338;6.514;2022-12-13T00:43:33;-2.80;99.90
52181;DHT22;38158;53.338;6.514;2022-12-13T00:45:59;-2.80;99.90
52181;DHT22;38158;53.338;6.514;2022-12-13T00:48:24;-2.80;99.90
52181;DHT22;38158;53.338;6.514;2022-12-13T00:50:50;-2.80;99.90
52181;DHT22;38158;53.338;6.514;2022-12-13T00:53:16;-2.80;99.90
52181;DHT22;38158;53.338;6.514;2022-12-13T00:55:41;-2.80;99.90
52181;DHT22;38158;53.338;6.514;2022-12-13T00:58:07;-2.80;99.90
52181;DHT22;38158;53.338;6.514;2022-12-13T01:00:33;-2.90;99.90
52181;DHT22;38158;53.338;6.514;2022-12-13T01:02:58;-2.90;99.90
52181;DHT22;38158;53.338;6.514;2022-12-13T01:05:24;-1.20;99.90
52181;DHT22;38158;53.338;6.514;2022-12-13T01:07:50;-2.90;99.90
52181;DHT22;38158;53.338;6.514;2022-12-13T01:10:15;-2.90;99.90
52181;DHT22;38158;53.338;6.514;2022-12-13T01:12:41;-2.80;99.90
52181;DHT22;38158;53.338;6.514;2022-12-13T01:15:07;-2.80;99.90
52181;DHT22;38158;53.338;6.514;2022-12-13T01:17:34;-2.90;99.90
52181;DHT22;38158;53.338;6.514;2022-12-13T01:20:00;-2.40;99.90
52181;DHT22;38158;53.338;6.514;2022-12-13T01:22:26;-1.90;99.90
52181;DHT22;38158;53.338;6.514;2022-12-13T01:24:52;-2.90;99.90
52181;DHT22;38158;53.338;6.514;2022-12-13T01:27:18;-1.70;99.90
52181;DHT22;38158;53.338;6.514;2022-12-13T01:29:43;-3.00;99.90
52181;DHT22;38158;53.338;6.514;2022-12-13T01:32:09;-2.90;99.90
52181;DHT22;38158;53.338;6.514;2022-12-13T01:34:35;-3.00;99.90
52181;DHT22;38158;53.338;6.514;2022-12-13T01:37:00;-3.00;99.90
52181;DHT22;38158;53.338;6.514;2022-12-13T01:39:27;-3.00;99.90
52181;DHT22;38158;53.338;6.514;2022-12-13T01:41:54;-3.00;99.90
52181;DHT22;38158;53.338;6.514;2022-12-13T01:47:29;-3.00;99.90
52181;DHT22;38158;53.338;6.514;2022-12-13T01:49:59;-3.00;99.90
52181;DHT22;38158;53.338;6.514;2022-12-13T01:52:29;-1.70;99.90
52181;DHT22;38158;53.338;6.514;2022-12-13T01:54:57;-3.00;99.90
52181;DHT22;38158;53.338;6.514;2022-12-13T01:57:24;-3.10;99.90
52181;DHT22;38158;53.338;6.514;2022-12-13T01:59:51;-2.00;99.90
52181;DHT22;38158;53.338;6.514;2022-12-13T02:02:17;-3.00;99.90
52181;DHT22;38158;53.338;6.514;2022-12-13T02:04:55;-3.00;99.90
52181;DHT22;38158;53.338;6.514;2022-12-13T02:07:25;-3.00;99.90
52181;DHT22;38158;53.338;6.514;2022-12-13T02:09:55;-3.00;99.90
52181;DHT22;38158;53.338;6.514;2022-12-13T02:12:23;-3.00;99.90
52181;DHT22;38158;53.338;6.514;2022-12-13T02:14:50;-3.00;99.90
52181;DHT22;38158;53.338;6.514;2022-12-13T02:34:23;-3.10;99.90
52181;DHT22;38158;53.338;6.514;2022-12-13T02:39:40;-3.10;99.90
52181;DHT22;38158;53.338;6.514;2022-12-13T02:44:47;-3.10;99.90
52181;DHT22;38158;53.338;6.514;2022-12-13T02:47:24;-3.10;99.90
52181;DHT22;38158;53.338;6.514;2022-12-13T02:49:55;-3.10;99.90
52181;DHT22;38158;53.338;6.514;2022-12-13T02:52:25;-3.10;99.90
52181;DHT22;38158;53.338;6.514;2022-12-13T02:54:55;-3.10;99.90
52181;DHT22;38158;53.338;6.514;2022-12-13T02:57:47;-2.10;99.90
52181;DHT22;38158;53.338;6.514;2022-12-13T03:00:18;-3.20;99.90
52181;DHT22;38158;53.338;6.514;2022-12-13T03:03:06;-3.20;99.90
52181;DHT22;38158;53.338;6.514;2022-12-13T03:05:50;-3.20;99.90
52181;DHT22;38158;53.338;6.514;2022-12-13T03:11:48;-3.20;99.90
52181;DHT22;38158;53.338;6.514;2022-12-13T03:14:38;-3.20;99.90
52181;DHT22;38158;53.338;6.514;2022-12-13T03:17:06;-3.30;99.90
52181;DHT22;38158;53.338;6.514;2022-12-13T03:19:33;-3.30;99.90
52181;DHT22;38158;53.338;6.514;2022-12-13T03:21:59;-3.30;99.90
52181;DHT22;38158;53.338;6.514;2022-12-13T03:24:24;-3.30;99.90
52181;DHT22;38158;53.338;6.514;2022-12-13T03:26:50;-3.30;99.90
52181;DHT22;38158;53.338;6.514;2022-12-13T03:29:17;-3.40;99.90
52181;DHT22;38158;53.338;6.514;2022-12-13T03:31:43;-3.40;99.90
52181;DHT22;38158;53.338;6.514;2022-12-13T03:34:08;-3.40;99.90
52181;DHT22;38158;53.338;6.514;2022-12-13T03:36:34;-3.40;99.90
52181;DHT22;38158;53.338;6.514;2022-12-13T03:39:00;-3.40;99.90
52181;DHT22;38158;53.338;6.514;2022-12-13T03:41:26;-3.40;99.90
52181;DHT22;38158;53.338;6.514;2022-12-13T03:44:02;-3.40;99.90
52181;DHT22;38158;53.338;6.514;2022-12-13T03:46:28;-2.80;99.90
52181;DHT22;38158;53.338;6.514;2022-12-13T03:48:54;-3.50;99.90
52181;DHT22;38158;53.338;6.514;2022-12-13T03:51:20;-3.40;99.90
52181;DHT22;38158;53.338;6.514;2022-12-13T03:53:45;-3.30;99.90
52181;DHT22;38158;53.338;6.514;2022-12-13T03:56:11;-3.50;99.90
52181;DHT22;38158;53.338;6.514;2022-12-13T03:58:37;-3.50;99.90
52181;DHT22;38158;53.338;6.514;2022-12-13T04:01:07;-3.50;99.90
52181;DHT22;38158;53.338;6.514;2022-12-13T04:03:35;-3.50;99.90
52181;DHT22;38158;53.338;6.514;2022-12-13T04:06:01;-3.50;99.90
52181;DHT22;38158;53.338;6.514;2022-12-13T04:08:27;-3.60;99.90
52181;DHT22;38158;53.338;6.514;2022-12-13T04:10:53;-3.50;99.90
52181;DHT22;38158;53.338;6.514;2022-12-13T04:13:18;-3.50;99.90
52181;DHT22;38158;53.338;6.514;2022-12-13T04:16:00;-3.50;99.90
52181;DHT22;38158;53.338;6.514;2022-12-13T04:18:26;-3.50;99.90
52181;DHT22;38158;53.338;6.514;2022-12-13T04:20:52;-3.50;99.90
52181;DHT22;38158;53.338;6.514;2022-12-13T04:23:18;-2.20;99.90
52181;DHT22;38158;53.338;6.514;2022-12-13T04:25:44;-3.50;99.90
52181;DHT22;38158;53.338;6.514;2022-12-13T04:28:10;-3.50;99.90
52181;DHT22;38158;53.338;6.514;2022-12-13T04:30:35;-3.50;99.90
52181;DHT22;38158;53.338;6.514;2022-12-13T04:33:02;-3.60;99.90
52181;DHT22;38158;53.338;6.514;2022-12-13T04:35:27;-3.60;99.90
52181;DHT22;38158;53.338;6.514;2022-12-13T04:37:54;-3.60;99.90
52181;DHT22;38158;53.338;6.514;2022-12-13T04:40:21;-3.70;99.90
52181;DHT22;38158;53.338;6.514;2022-12-13T04:42:46;-3.70;99.90
52181;DHT22;38158;53.338;6.514;2022-12-13T04:45:16;-3.60;99.90
52181;DHT22;38158;53.338;6.514;2022-12-13T04:47:42;-3.00;99.90
52181;DHT22;38158;53.338;6.514;2022-12-13T04:50:09;-3.60;99.90
52181;DHT22;38158;53.338;6.514;2022-12-13T04:52:34;-2.10;99.90
52181;DHT22;38158;53.338;6.514;2022-12-13T04:55:02;-3.50;99.90
52181;DHT22;38158;53.338;6.514;2022-12-13T04:57:28;-3.50;99.90
52181;DHT22;38158;53.338;6.514;2022-12-13T04:59:53;-3.50;99.90
52181;DHT22;38158;53.338;6.514;2022-12-13T05:02:19;-3.50;99.90
52181;DHT22;38158;53.338;6.514;2022-12-13T05:04:45;-3.60;99.90
52181;DHT22;38158;53.338;6.514;2022-12-13T05:07:10;-3.60;99.90
52181;DHT22;38158;53.338;6.514;2022-12-13T05:09:36;-3.70;99.90
52181;DHT22;38158;53.338;6.514;2022-12-13T05:12:02;-3.70;99.90
52181;DHT22;38158;53.338;6.514;2022-12-13T05:14:31;-3.80;99.90
52181;DHT22;38158;53.338;6.514;2022-12-13T05:17:01;-3.80;99.90
52181;DHT22;38158;53.338;6.514;2022-12-13T05:19:27;-3.80;99.90
52181;DHT22;38158;53.338;6.514;2022-12-13T05:21:53;-3.70;99.90
52181;DHT22;38158;53.338;6.514;2022-12-13T05:24:19;-3.70;99.90
52181;DHT22;38158;53.338;6.514;2022-12-13T05:26:44;-3.70;99.90
52181;DHT22;38158;53.338;6.514;2022-12-13T05:29:10;-3.80;99.90
52181;DHT22;38158;53.338;6.514;2022-12-13T05:31:36;-3.80;99.90
52181;DHT22;38158;53.338;6.514;2022-12-13T05:34:01;-3.80;99.90
52181;DHT22;38158;53.338;6.514;2022-12-13T05:36:27;-3.80;99.90
52181;DHT22;38158;53.338;6.514;2022-12-13T05:38:53;-3.80;99.90
52181;DHT22;38158;53.338;6.514;2022-12-13T05:41:21;-3.80;99.90
52181;DHT22;38158;53.338;6.514;2022-12-13T05:43:51;-3.80;99.90
52181;DHT22;38158;53.338;6.514;2022-12-13T05:46:16;-3.80;99.90
52181;DHT22;38158;53.338;6.514;2022-12-13T05:48:42;-3.80;99.90
52181;DHT22;38158;53.338;6.514;2022-12-13T05:51:09;-3.80;99.90
52181;DHT22;38158;53.338;6.514;2022-12-13T05:53:35;-3.80;99.90
52181;DHT22;38158;53.338;6.514;2022-12-13T05:56:01;-3.70;99.90
52181;DHT22;38158;53.338;6.514;2022-12-13T05:58:27;-3.70;99.90
52181;DHT22;38158;53.338;6.514;2022-12-13T06:00:53;-3.80;99.90
52181;DHT22;38158;53.338;6.514;2022-12-13T06:03:19;-3.80;99.90
52181;DHT22;38158;53.338;6.514;2022-12-13T06:05:45;-3.80;99.90
52181;DHT22;38158;53.338;6.514;2022-12-13T06:08:11;-3.80;99.90
52181;DHT22;38158;53.338;6.514;2022-12-13T06:10:37;-3.80;99.90
52181;DHT22;38158;53.338;6.514;2022-12-13T06:13:05;-3.90;99.90
52181;DHT22;38158;53.338;6.514;2022-12-13T06:15:31;-3.80;99.90
52181;DHT22;38158;53.338;6.514;2022-12-13T06:18:00;-3.80;99.90
52181;DHT22;38158;53.338;6.514;2022-12-13T06:20:26;-2.30;99.90
52181;DHT22;38158;53.338;6.514;2022-12-13T06:22:52;-3.90;99.90
52181;DHT22;38158;53.338;6.514;2022-12-13T06:25:18;-3.40;99.90
52181;DHT22;38158;53.338;6.514;2022-12-13T06:27:44;-3.90;99.90
52181;DHT22;38158;53.338;6.514;2022-12-13T06:30:10;-3.90;99.90
52181;DHT22;38158;53.338;6.514;2022-12-13T06:32:36;-3.80;99.90
52181;DHT22;38158;53.338;6.514;2022-12-13T06:35:01;-2.80;99.90
52181;DHT22;38158;53.338;6.514;2022-12-13T06:37:27;-3.80;99.90
52181;DHT22;38158;53.338;6.514;2022-12-13T06:39:53;-3.80;99.90
52181;DHT22;38158;53.338;6.514;2022-12-13T06:42:18;-3.80;99.90
52181;DHT22;38158;53.338;6.514;2022-12-13T06:44:44;-3.80;99.90
52181;DHT22;38158;53.338;6.514;2022-12-13T06:47:10;-3.80;99.90
52181;DHT22;38158;53.338;6.514;2022-12-13T06:49:36;-3.80;99.90
52181;DHT22;38158;53.338;6.514;2022-12-13T06:52:03;-3.80;99.90
52181;DHT22;38158;53.338;6.514;2022-12-13T06:54:28;-3.10;99.90
52181;DHT22;38158;53.338;6.514;2022-12-13T06:56:54;-3.80;99.90
52181;DHT22;38158;53.338;6.514;2022-12-13T06:59:20;-3.80;99.90
52181;DHT22;38158;53.338;6.514;2022-12-13T07:01:46;-3.90;99.90
52181;DHT22;38158;53.338;6.514;2022-12-13T07:04:11;-3.90;99.90
52181;DHT22;38158;53.338;6.514;2022-12-13T07:06:37;-3.90;99.90
52181;DHT22;38158;53.338;6.514;2022-12-13T07:09:03;-3.30;99.90
52181;DHT22;38158;53.338;6.514;2022-12-13T07:11:31;-3.90;99.90
52181;DHT22;38158;53.338;6.514;2022-12-13T07:13:58;-3.80;99.90
52181;DHT22;38158;53.338;6.514;2022-12-13T07:16:25;-3.80;99.90
52181;DHT22;38158;53.338;6.514;2022-12-13T07:18:56;-1.60;99.90
52181;DHT22;38158;53.338;6.514;2022-12-13T07:21:22;-3.90;99.90
52181;DHT22;38158;53.338;6.514;2022-12-13T07:23:48;-3.90;99.90
52181;DHT22;38158;53.338;6.514;2022-12-13T07:26:17;-3.90;99.90
52181;DHT22;38158;53.338;6.514;2022-12-13T07:28:44;-4.70;99.90
52181;DHT22;38158;53.338;6.514;2022-12-13T07:31:10;-4.70;99.90
52181;DHT22;38158;53.338;6.514;2022-12-13T07:33:36;-3.90;99.90
52181;DHT22;38158;53.338;6.514;2022-12-13T07:36:21;-3.90;99.90
52181;DHT22;38158;53.338;6.514;2022-12-13T07:38:55;-3.90;99.90
52181;DHT22;38158;53.338;6.514;2022-12-13T07:41:22;-3.90;99.90
52181;DHT22;38158;53.338;6.514;2022-12-13T07:43:47;-3.90;99.90
52181;DHT22;38158;53.338;6.514;2022-12-13T07:46:13;-3.90;99.90
52181;DHT22;38158;53.338;6.514;2022-12-13T07:48:39;-4.00;99.90
52181;DHT22;38158;53.338;6.514;2022-12-13T07:51:07;-4.00;99.90
52181;DHT22;38158;53.338;6.514;2022-12-13T07:53:33;-3.10;99.90
52181;DHT22;38158;53.338;6.514;2022-12-13T07:56:07;-4.00;99.90
52181;DHT22;38158;53.338;6.514;2022-12-13T07:58:34;-4.00;99.90
52181;DHT22;38158;53.338;6.514;2022-12-13T08:01:04;-4.00;99.90
52181;DHT22;38158;53.338;6.514;2022-12-13T08:03:30;-4.00;99.90
52181;DHT22;38158;53.338;6.514;2022-12-13T08:06:04;-4.00;99.90
52181;DHT22;38158;53.338;6.514;2022-12-13T08:08:30;-4.00;99.90
52181;DHT22;38158;53.338;6.514;2022-12-13T08:11:00;-3.90;99.90
52181;DHT22;38158;53.338;6.514;2022-12-13T08:13:26;-3.90;99.90
52181;DHT22;38158;53.338;6.514;2022-12-13T08:15:57;-3.90;99.90
52181;DHT22;38158;53.338;6.514;2022-12-13T08:18:24;-3.90;99.90
52181;DHT22;38158;53.338;6.514;2022-12-13T08:20:50;-3.90;99.90
52181;DHT22;38158;53.338;6.514;2022-12-13T08:23:15;-3.90;99.90
52181;DHT22;38158;53.338;6.514;2022-12-13T08:25:41;-3.90;99.90
52181;DHT22;38158;53.338;6.514;2022-12-13T08:28:06;-2.70;99.90
52181;DHT22;38158;53.338;6.514;2022-12-13T08:30:32;-3.80;99.90
52181;DHT22;38158;53.338;6.514;2022-12-13T08:32:58;-3.80;99.90
52181;DHT22;38158;53.338;6.514;2022-12-13T08:35:27;-3.70;99.90
52181;DHT22;38158;53.338;6.514;2022-12-13T08:37:53;-3.70;99.90
52181;DHT22;38158;53.338;6.514;2022-12-13T08:40:19;-3.60;99.90
52181;DHT22;38158;53.338;6.514;2022-12-13T08:42:44;-3.60;99.90
52181;DHT22;38158;53.338;6.514;2022-12-13T08:45:10;-2.00;99.90
52181;DHT22;38158;53.338;6.514;2022-12-13T08:47:36;-3.60;99.90
52181;DHT22;38158;53.338;6.514;2022-12-13T08:50:02;-3.50;99.90
52181;DHT22;38158;53.338;6.514;2022-12-13T08:52:28;-3.50;99.90
52181;DHT22;38158;53.338;6.514;2022-12-13T08:54:54;-3.50;99.90
52181;DHT22;38158;53.338;6.514;2022-12-13T08:57:19;-3.50;99.90
52181;DHT22;38158;53.338;6.514;2022-12-13T08:59:45;-3.50;99.90
52181;DHT22;38158;53.338;6.514;2022-12-13T09:02:12;-3.40;99.90
52181;DHT22;38158;53.338;6.514;2022-12-13T09:04:38;-3.00;99.90
52181;DHT22;38158;53.338;6.514;2022-12-13T09:07:04;-3.40;99.90
52181;DHT22;38158;53.338;6.514;2022-12-13T09:09:30;-3.40;99.90
52181;DHT22;38158;53.338;6.514;2022-12-13T09:11:56;-3.30;99.90
52181;DHT22;38158;53.338;6.514;2022-12-13T09:14:21;-3.30;99.90
52181;DHT22;38158;53.338;6.514;2022-12-13T09:16:47;-3.30;99.90
52181;DHT22;38158;53.338;6.514;2022-12-13T09:19:13;-3.30;99.90
52181;DHT22;38158;53.338;6.514;2022-12-13T09:21:39;-3.30;99.90
52181;DHT22;38158;53.338;6.514;2022-12-13T09:24:05;-3.30;99.90
52181;DHT22;38158;53.338;6.514;2022-12-13T09:26:30;-2.20;99.90
52181;DHT22;38158;53.338;6.514;2022-12-13T09:28:56;-3.20;99.90
52181;DHT22;38158;53.338;6.514;2022-12-13T09:31:22;-3.20;99.90
52181;DHT22;38158;53.338;6.514;2022-12-13T09:33:48;-1.60;99.90
52181;DHT22;38158;53.338;6.514;2022-12-13T09:36:19;-2.10;99.90
52181;DHT22;38158;53.338;6.514;2022-12-13T09:38:45;-3.00;99.90
52181;DHT22;38158;53.338;6.514;2022-12-13T09:41:22;-2.90;99.90
52181;DHT22;38158;53.338;6.514;2022-12-13T09:44:57;-2.90;99.90
52181;DHT22;38158;53.338;6.514;2022-12-13T09:46:51;-2.80;99.90
52181;DHT22;38158;53.338;6.514;2022-12-13T09:49:34;-2.70;99.90
52181;DHT22;38158;53.338;6.514;2022-12-13T09:52:04;-2.20;99.90
52181;DHT22;38158;53.338;6.514;2022-12-13T09:54:32;-2.60;99.90
52181;DHT22;38158;53.338;6.514;2022-12-13T09:56:58;-2.20;99.90
52181;DHT22;38158;53.338;6.514;2022-12-13T09:59:27;-2.50;99.90
52181;DHT22;38158;53.338;6.514;2022-12-13T10:01:55;-1.80;99.90
52181;DHT22;38158;53.338;6.514;2022-12-13T10:04:22;-2.40;99.90
52181;DHT22;38158;53.338;6.514;2022-12-13T10:06:52;-2.40;99.90
52181;DHT22;38158;53.338;6.514;2022-12-13T10:09:18;-2.30;99.90
52181;DHT22;38158;53.338;6.514;2022-12-13T10:11:52;-2.30;99.90
52181;DHT22;38158;53.338;6.514;2022-12-13T10:14:26;-2.20;99.90
52181;DHT22;38158;53.338;6.514;2022-12-13T10:16:59;-2.20;99.90
52181;DHT22;38158;53.338;6.514;2022-12-13T10:19:42;0.20;99.90
52181;DHT22;38158;53.338;6.514;2022-12-13T10:22:16;-1.90;99.90
52181;DHT22;38158;53.338;6.514;2022-12-13T10:24:54;-1.80;99.90
52181;DHT22;38158;53.338;6.514;2022-12-13T10:30:16;-1.50;99.90
52181;DHT22;38158;53.338;6.514;2022-12-13T10:35:24;-1.30;99.90
52181;DHT22;38158;53.338;6.514;2022-12-13T10:37:50;-1.30;99.90
52181;DHT22;38158;53.338;6.514;2022-12-13T10:40:43;-1.30;99.90
52181;DHT22;38158;53.338;6.514;2022-12-13T10:43:17;-1.20;99.90
52181;DHT22;38158;53.338;6.514;2022-12-13T10:48:48;-1.00;99.90
52181;DHT22;38158;53.338;6.514;2022-12-13T10:51:19;-0.90;99.90
52181;DHT22;38158;53.338;6.514;2022-12-13T10:53:53;-0.10;99.90
52181;DHT22;38158;53.338;6.514;2022-12-13T10:56:20;-0.70;99.90
52181;DHT22;38158;53.338;6.514;2022-12-13T10:58:47;0.10;99.90
52181;DHT22;38158;53.338;6.514;2022-12-13T11:04:04;-0.80;99.90
52181;DHT22;38158;53.338;6.514;2022-12-13T11:06:44;-0.80;99.90
52181;DHT22;38158;53.338;6.514;2022-12-13T11:11:57;-0.80;99.90
52181;DHT22;38158;53.338;6.514;2022-12-13T11:14:33;0.10;99.90
52181;DHT22;38158;53.338;6.514;2022-12-13T11:17:13;-0.80;99.90
52181;DHT22;38158;53.338;6.514;2022-12-13T11:19:47;-0.80;99.90
52181;DHT22;38158;53.338;6.514;2022-12-13T11:22:35;-0.70;99.90
52181;DHT22;38158;53.338;6.514;2022-12-13T11:25:08;-0.20;99.90
52181;DHT22;38158;53.338;6.514;2022-12-13T11:30:24;-0.20;99.90
52181;DHT22;38158;53.338;6.514;2022-12-13T11:33:17;-0.60;99.90
52181;DHT22;38158;53.338;6.514;2022-12-13T11:39:02;-0.50;99.90
52181;DHT22;38158;53.338;6.514;2022-12-13T11:44:18;-0.40;99.90
52181;DHT22;38158;53.338;6.514;2022-12-13T11:47:05;-0.40;99.90
52181;DHT22;38158;53.338;6.514;2022-12-13T11:49:38;-0.30;99.90
52181;DHT22;38158;53.338;6.514;2022-12-13T11:52:35;0.50;99.90
52181;DHT22;38158;53.338;6.514;2022-12-13T12:00:31;-0.20;99.90
52181;DHT22;38158;53.338;6.514;2022-12-13T12:03:36;-0.10;99.90
52181;DHT22;38158;53.338;6.514;2022-12-13T12:06:02;0.00;99.90
52181;DHT22;38158;53.338;6.514;2022-12-13T12:08:49;0.10;99.90
52181;DHT22;38158;53.338;6.514;2022-12-13T12:14:38;0.20;99.90
52181;DHT22;38158;53.338;6.514;2022-12-13T12:17:08;0.20;99.90
52181;DHT22;38158;53.338;6.514;2022-12-13T12:19:38;0.30;99.90
52181;DHT22;38158;53.338;6.514;2022-12-13T12:38:04;0.60;99.90
52181;DHT22;38158;53.338;6.514;2022-12-13T12:59:54;0.80;99.90
52181;DHT22;38158;53.338;6.514;2022-12-13T13:02:30;0.80;99.90
52181;DHT22;38158;53.338;6.514;2022-12-13T13:05:27;0.80;99.90
52181;DHT22;38158;53.338;6.514;2022-12-13T13:08:12;0.80;99.90
52181;DHT22;38158;53.338;6.514;2022-12-13T13:10:41;1.10;99.90
52181;DHT22;38158;53.338;6.514;2022-12-13T13:16:03;0.90;99.90
52181;DHT22;38158;53.338;6.514;2022-12-13T13:18:49;0.90;99.90
52181;DHT22;38158;53.338;6.514;2022-12-13T13:26:50;0.90;99.90
52181;DHT22;38158;53.338;6.514;2022-12-13T13:34:39;0.90;99.90
52181;DHT22;38158;53.338;6.514;2022-12-13T13:42:31;0.80;99.90
52181;DHT22;38158;53.338;6.514;2022-12-13T13:45:01;0.90;99.90
52181;DHT22;38158;53.338;6.514;2022-12-13T13:47:35;0.70;99.90
52181;DHT22;38158;53.338;6.514;2022-12-13T14:04:21;0.80;99.90
52181;DHT22;38158;53.338;6.514;2022-12-13T14:06:26;0.40;99.90
52181;DHT22;38158;53.338;6.514;2022-12-13T14:14:43;0.30;99.90
52181;DHT22;38158;53.338;6.514;2022-12-13T14:31:01;0.10;99.90
52181;DHT22;38158;53.338;6.514;2022-12-13T14:33:27;0.00;99.90
52181;DHT22;38158;53.338;6.514;2022-12-13T14:35:56;0.00;99.90
52181;DHT22;38158;53.338;6.514;2022-12-13T14:38:24;1.10;99.90
52181;DHT22;38158;53.338;6.514;2022-12-13T14:40:53;1.20;99.90
52181;DHT22;38158;53.338;6.514;2022-12-13T14:43:25;-0.10;99.90
52181;DHT22;38158;53.338;6.514;2022-12-13T14:46:03;-0.20;99.90
52181;DHT22;38158;53.338;6.514;2022-12-13T14:48:43;-0.20;99.90
52181;DHT22;38158;53.338;6.514;2022-12-13T14:51:33;-0.30;99.90
52181;DHT22;38158;53.338;6.514;2022-12-13T14:54:00;-0.40;99.90
52181;DHT22;38158;53.338;6.514;2022-12-13T14:56:27;-0.40;99.90
52181;DHT22;38158;53.338;6.514;2022-12-13T14:58:58;-0.50;99.90
52181;DHT22;38158;53.338;6.514;2022-12-13T15:01:31;-0.50;99.90
52181;DHT22;38158;53.338;6.514;2022-12-13T15:06:47;-0.60;99.90
52181;DHT22;38158;53.338;6.514;2022-12-13T15:09:15;-0.60;99.90
52181;DHT22;38158;53.338;6.514;2022-12-13T15:11:43;-0.70;99.90
52181;DHT22;38158;53.338;6.514;2022-12-13T15:14:17;-0.70;99.90
52181;DHT22;38158;53.338;6.514;2022-12-13T15:16:48;-0.80;99.90
52181;DHT22;38158;53.338;6.514;2022-12-13T15:19:21;-0.60;99.90
52181;DHT22;38158;53.338;6.514;2022-12-13T15:21:59;-0.90;99.90
52181;DHT22;38158;53.338;6.514;2022-12-13T15:24:28;-0.90;99.90
52181;DHT22;38158;53.338;6.514;2022-12-13T15:26:56;-0.90;99.90
52181;DHT22;38158;53.338;6.514;2022-12-13T15:29:24;-1.00;99.90
52181;DHT22;38158;53.338;6.514;2022-12-13T15:31:50;-1.00;99.90
52181;DHT22;38158;53.338;6.514;2022-12-13T15:34:32;-0.60;99.90
52181;DHT22;38158;53.338;6.514;2022-12-13T15:37:01;-1.10;99.90
52181;DHT22;38158;53.338;6.514;2022-12-13T15:39:27;-1.10;99.90
52181;DHT22;38158;53.338;6.514;2022-12-13T15:41:55;-1.10;99.90
52181;DHT22;38158;53.338;6.514;2022-12-13T15:44:32;-1.10;99.90
52181;DHT22;38158;53.338;6.514;2022-12-13T15:47:04;-1.20;99.90
52181;DHT22;38158;53.338;6.514;2022-12-13T15:49:38;-1.00;99.90
52181;DHT22;38158;53.338;6.514;2022-12-13T15:54:39;-1.20;99.90
52181;DHT22;38158;53.338;6.514;2022-12-13T15:57:14;-1.30;99.90
52181;DHT22;38158;53.338;6.514;2022-12-13T15:59:41;-1.30;99.90
52181;DHT22;38158;53.338;6.514;2022-12-13T16:02:17;-1.30;99.90
52181;DHT22;38158;53.338;6.514;2022-12-13T16:04:45;-1.40;99.90
52181;DHT22;38158;53.338;6.514;2022-12-13T16:07:28;-1.40;99.90
52181;DHT22;38158;53.338;6.514;2022-12-13T16:09:56;-1.40;99.90
52181;DHT22;38158;53.338;6.514;2022-12-13T16:12:26;-1.50;99.90
52181;DHT22;38158;53.338;6.514;2022-12-13T16:17:40;-1.50;99.90
52181;DHT22;38158;53.338;6.514;2022-12-13T16:20:14;-1.60;99.90
52181;DHT22;38158;53.338;6.514;2022-12-13T16:22:41;-1.60;99.90
52181;DHT22;38158;53.338;6.514;2022-12-13T16:25:10;-1.60;99.90
52181;DHT22;38158;53.338;6.514;2022-12-13T16:27:36;-1.70;99.90
52181;DHT22;38158;53.338;6.514;2022-12-13T16:32:36;-1.70;99.90
52181;DHT22;38158;53.338;6.514;2022-12-13T16:35:01;-1.80;99.90
52181;DHT22;38158;53.338;6.514;2022-12-13T16:37:27;-1.80;99.90
52181;DHT22;38158;53.338;6.514;2022-12-13T16:39:53;-1.80;99.90
52181;DHT22;38158;53.338;6.514;2022-12-13T16:42:18;-0.50;99.90
52181;DHT22;38158;53.338;6.514;2022-12-13T16:44:45;-1.80;99.90
52181;DHT22;38158;53.338;6.514;2022-12-13T16:47:11;-0.90;99.90
52181;DHT22;38158;53.338;6.514;2022-12-13T16:49:38;-1.90;99.90
52181;DHT22;38158;53.338;6.514;2022-12-13T16:52:03;-1.90;99.90
52181;DHT22;38158;53.338;6.514;2022-12-13T16:54:32;-2.00;99.90
52181;DHT22;38158;53.338;6.514;2022-12-13T16:56:57;-2.00;99.90
52181;DHT22;38158;53.338;6.514;2022-12-13T16:59:25;-2.00;99.90
52181;DHT22;38158;53.338;6.514;2022-12-13T17:01:52;-2.00;99.90
52181;DHT22;38158;53.338;6.514;2022-12-13T17:04:20;-2.00;99.90
52181;DHT22;38158;53.338;6.514;2022-12-13T17:06:48;-2.00;99.90
52181;DHT22;38158;53.338;6.514;2022-12-13T17:09:14;-0.60;99.90
52181;DHT22;38158;53.338;6.514;2022-12-13T17:11:40;-2.00;99.90
52181;DHT22;38158;53.338;6.514;2022-12-13T17:14:06;-2.10;99.90
52181;DHT22;38158;53.338;6.514;2022-12-13T17:16:32;-2.10;99.90
52181;DHT22;38158;53.338;6.514;2022-12-13T17:18:57;-2.10;99.90
52181;DHT22;38158;53.338;6.514;2022-12-13T17:21:24;-2.20;99.90
52181;DHT22;38158;53.338;6.514;2022-12-13T17:23:58;-2.20;99.90
52181;DHT22;38158;53.338;6.514;2022-12-13T17:26:25;-0.80;99.90
52181;DHT22;38158;53.338;6.514;2022-12-13T17:28:51;-2.30;99.90
52181;DHT22;38158;53.338;6.514;2022-12-13T17:31:17;-2.30;99.90
52181;DHT22;38158;53.338;6.514;2022-12-13T17:33:44;-2.10;99.90
52181;DHT22;38158;53.338;6.514;2022-12-13T17:36:11;-2.30;99.90
52181;DHT22;38158;53.338;6.514;2022-12-13T17:38:41;-2.40;99.90
52181;DHT22;38158;53.338;6.514;2022-12-13T17:41:06;-2.30;99.90
52181;DHT22;38158;53.338;6.514;2022-12-13T17:43:32;-2.40;99.90
52181;DHT22;38158;53.338;6.514;2022-12-13T17:46:03;-2.40;99.90
52181;DHT22;38158;53.338;6.514;2022-12-13T17:48:30;-2.40;99.90
52181;DHT22;38158;53.338;6.514;2022-12-13T17:50:56;-2.40;99.90
52181;DHT22;38158;53.338;6.514;2022-12-13T17:53:22;-2.40;99.90
52181;DHT22;38158;53.338;6.514;2022-12-13T17:56:02;-2.40;99.90
52181;DHT22;38158;53.338;6.514;2022-12-13T17:58:29;-2.30;99.90
52181;DHT22;38158;53.338;6.514;2022-12-13T18:00:57;-2.40;99.90
52181;DHT22;38158;53.338;6.514;2022-12-13T18:03:23;-2.40;99.90
52181;DHT22;38158;53.338;6.514;2022-12-13T18:05:58;-2.00;99.90
52181;DHT22;38158;53.338;6.514;2022-12-13T18:08:27;-2.40;99.90
52181;DHT22;38158;53.338;6.514;2022-12-13T18:10:54;-2.50;99.90
52181;DHT22;38158;53.338;6.514;2022-12-13T18:13:21;-2.00;99.90
52181;DHT22;38158;53.338;6.514;2022-12-13T18:15:47;-2.50;99.90
52181;DHT22;38158;53.338;6.514;2022-12-13T18:18:12;-2.50;99.90
52181;DHT22;38158;53.338;6.514;2022-12-13T18:20:38;-1.60;99.90
52181;DHT22;38158;53.338;6.514;2022-12-13T18:23:04;-2.20;99.90